sensor_id;sensor_type;location;lat;lon;timestamp;P1;durP1;ratioP1;P2;durP2;ratioP2
173;SDS011;75;48.784;9.364;2023-04-25T00:00:36;7.37;;;4.57;;
173;SDS011;75;48.784;9.364;2023-04-25T00:03:21;7.10;;;4.67;;
173;SDS011;75;48.784;9.364;2023-04-25T00:06:06;7.70;;;5.10;;
173;SDS011;75;48.784;9.364;2023-04-25T00:08:52;5.53;;;4.40;;
173;SDS011;75;48.784;9.364;2023-04-25T00:11:36;7.10;;;4.67;;
173;SDS011;75;48.784;9.364;2023-04-25T00:14:21;5.87;;;4.17;;
173;SDS011;75;48.784;9.364;2023-04-25T00:17:06;7.83;;;4.50;;
173;SDS011;75;48.784;9.364;2023-04-25T00:19:51;5.17;;;3.83;;
173;SDS011;75;48.784;9.364;2023-04-25T00:22:36;7.20;;;4.20;;
173;SDS011;75;48.784;9.364;2023-04-25T00:25:20;7.43;;;5.00;;
173;SDS011;75;48.784;9.364;2023-04-25T00:28:05;9.93;;;4.50;;
173;SDS011;75;48.784;9.364;2023-04-25T00:30:49;5.80;;;4.17;;
173;SDS011;75;48.784;9.364;2023-04-25T00:33:34;6.33;;;4.67;;
173;SDS011;75;48.784;9.364;2023-04-25T00:36:19;8.50;;;4.50;;
173;SDS011;75;48.784;9.364;2023-04-25T00:39:03;5.37;;;4.30;;
173;SDS011;75;48.784;9.364;2023-04-25T00:41:48;6.30;;;4.70;;
173;SDS011;75;48.784;9.364;2023-04-25T00:44:36;5.80;;;4.60;;
173;SDS011;75;48.784;9.364;2023-04-25T00:47:21;6.40;;;4.63;;
173;SDS011;75;48.784;9.364;2023-04-25T00:50:07;5.83;;;4.67;;
173;SDS011;75;48.784;9.364;2023-04-25T00:52:52;6.17;;;4.90;;
173;SDS011;75;48.784;9.364;2023-04-25T00:55:37;8.23;;;5.10;;
173;SDS011;75;48.784;9.364;2023-04-25T00:58:21;7.70;;;5.23;;
173;SDS011;75;48.784;9.364;2023-04-25T01:01:06;8.53;;;5.03;;
173;SDS011;75;48.784;9.364;2023-04-25T01:03:51;6.67;;;5.20;;
173;SDS011;75;48.784;9.364;2023-04-25T01:06:37;8.67;;;5.53;;
173;SDS011;75;48.784;9.364;2023-04-25T01:09:31;7.70;;;5.37;;
173;SDS011;75;48.784;9.364;2023-04-25T01:12:16;8.30;;;5.80;;
173;SDS011;75;48.784;9.364;2023-04-25T01:15:00;7.20;;;5.10;;
173;SDS011;75;48.784;9.364;2023-04-25T01:17:45;11.00;;;5.63;;
173;SDS011;75;48.784;9.364;2023-04-25T01:20:30;8.33;;;5.10;;
173;SDS011;75;48.784;9.364;2023-04-25T01:23:16;7.27;;;5.30;;
173;SDS011;75;48.784;9.364;2023-04-25T01:26:01;6.80;;;5.10;;
173;SDS011;75;48.784;9.364;2023-04-25T01:28:45;7.53;;;5.60;;
173;SDS011;75;48.784;9.364;2023-04-25T01:31:30;7.30;;;5.20;;
173;SDS011;75;48.784;9.364;2023-04-25T01:34:15;6.50;;;5.03;;
173;SDS011;75;48.784;9.364;2023-04-25T01:37:00;6.80;;;5.30;;
173;SDS011;75;48.784;9.364;2023-04-25T01:39:45;7.40;;;5.53;;
173;SDS011;75;48.784;9.364;2023-04-25T01:42:29;9.80;;;5.60;;
173;SDS011;75;48.784;9.364;2023-04-25T01:45:14;7.17;;;5.43;;
173;SDS011;75;48.784;9.364;2023-04-25T01:47:58;7.67;;;6.00;;
173;SDS011;75;48.784;9.364;2023-04-25T01:50:43;11.03;;;6.20;;
173;SDS011;75;48.784;9.364;2023-04-25T01:53:28;11.63;;;6.37;;
173;SDS011;75;48.784;9.364;2023-04-25T01:56:13;8.30;;;6.47;;
173;SDS011;75;48.784;9.364;2023-04-25T01:58:58;9.27;;;6.20;;
173;SDS011;75;48.784;9.364;2023-04-25T02:01:42;9.33;;;7.17;;
173;SDS011;75;48.784;9.364;2023-04-25T02:04:27;9.13;;;6.67;;
173;SDS011;75;48.784;9.364;2023-04-25T02:07:11;8.53;;;6.00;;
173;SDS011;75;48.784;9.364;2023-04-25T02:09:56;8.00;;;6.40;;
173;SDS011;75;48.784;9.364;2023-04-25T02:12:40;8.50;;;6.50;;
173;SDS011;75;48.784;9.364;2023-04-25T02:15:25;13.00;;;6.70;;
173;SDS011;75;48.784;9.364;2023-04-25T02:18:09;9.73;;;6.87;;
173;SDS011;75;48.784;9.364;2023-04-25T02:20:54;12.20;;;6.33;;
173;SDS011;75;48.784;9.364;2023-04-25T02:23:39;8.77;;;6.80;;
173;SDS011;75;48.784;9.364;2023-04-25T02:26:24;9.70;;;6.63;;
173;SDS011;75;48.784;9.364;2023-04-25T02:29:08;8.73;;;6.80;;
173;SDS011;75;48.784;9.364;2023-04-25T02:31:53;8.27;;;6.40;;
173;SDS011;75;48.784;9.364;2023-04-25T02:34:38;10.00;;;6.13;;
173;SDS011;75;48.784;9.364;2023-04-25T02:37:24;10.20;;;6.63;;
173;SDS011;75;48.784;9.364;2023-04-25T02:40:08;9.00;;;6.90;;
173;SDS011;75;48.784;9.364;2023-04-25T02:42:53;9.60;;;6.60;;
173;SDS011;75;48.784;9.364;2023-04-25T02:45:38;10.00;;;6.43;;
173;SDS011;75;48.784;9.364;2023-04-25T02:48:22;10.60;;;6.67;;
173;SDS011;75;48.784;9.364;2023-04-25T02:51:07;9.40;;;6.67;;
173;SDS011;75;48.784;9.364;2023-04-25T02:53:51;11.53;;;7.50;;
173;SDS011;75;48.784;9.364;2023-04-25T02:56:36;9.43;;;6.30;;
173;SDS011;75;48.784;9.364;2023-04-25T02:59:20;9.13;;;6.53;;
173;SDS011;75;48.784;9.364;2023-04-25T03:02:05;9.90;;;6.80;;
173;SDS011;75;48.784;9.364;2023-04-25T03:04:49;7.77;;;6.20;;
173;SDS011;75;48.784;9.364;2023-04-25T03:07:34;10.43;;;6.87;;
173;SDS011;75;48.784;9.364;2023-04-25T03:10:18;7.70;;;6.03;;
173;SDS011;75;48.784;9.364;2023-04-25T03:13:03;12.20;;;7.53;;
173;SDS011;75;48.784;9.364;2023-04-25T03:15:47;11.63;;;7.13;;
173;SDS011;75;48.784;9.364;2023-04-25T03:18:32;8.80;;;5.37;;
173;SDS011;75;48.784;9.364;2023-04-25T03:21:17;9.70;;;6.00;;
173;SDS011;75;48.784;9.364;2023-04-25T03:24:02;8.33;;;5.80;;
173;SDS011;75;48.784;9.364;2023-04-25T03:26:47;8.10;;;6.20;;
173;SDS011;75;48.784;9.364;2023-04-25T03:29:31;9.83;;;6.90;;
173;SDS011;75;48.784;9.364;2023-04-25T03:32:16;7.90;;;6.20;;
173;SDS011;75;48.784;9.364;2023-04-25T03:35:00;7.47;;;5.93;;
173;SDS011;75;48.784;9.364;2023-04-25T03:37:45;8.23;;;5.87;;
173;SDS011;75;48.784;9.364;2023-04-25T03:40:29;8.33;;;6.13;;
173;SDS011;75;48.784;9.364;2023-04-25T03:43:14;8.40;;;6.00;;
173;SDS011;75;48.784;9.364;2023-04-25T03:45:59;9.43;;;6.43;;
173;SDS011;75;48.784;9.364;2023-04-25T03:48:44;8.83;;;5.90;;
173;SDS011;75;48.784;9.364;2023-04-25T03:51:28;7.83;;;5.53;;
173;SDS011;75;48.784;9.364;2023-04-25T03:54:14;8.43;;;6.10;;
173;SDS011;75;48.784;9.364;2023-04-25T03:56:58;8.50;;;5.40;;
173;SDS011;75;48.784;9.364;2023-04-25T03:59:43;8.30;;;5.90;;
173;SDS011;75;48.784;9.364;2023-04-25T04:02:28;8.37;;;5.57;;
173;SDS011;75;48.784;9.364;2023-04-25T04:05:13;8.20;;;5.50;;
173;SDS011;75;48.784;9.364;2023-04-25T04:07:57;7.30;;;5.20;;
173;SDS011;75;48.784;9.364;2023-04-25T04:10:42;7.97;;;5.30;;
173;SDS011;75;48.784;9.364;2023-04-25T04:13:27;6.37;;;4.80;;
173;SDS011;75;48.784;9.364;2023-04-25T04:16:11;9.63;;;5.13;;
173;SDS011;75;48.784;9.364;2023-04-25T04:18:56;7.77;;;5.20;;
173;SDS011;75;48.784;9.364;2023-04-25T04:21:40;9.30;;;4.93;;
173;SDS011;75;48.784;9.364;2023-04-25T04:24:25;7.53;;;5.70;;
173;SDS011;75;48.784;9.364;2023-04-25T04:27:09;9.63;;;6.47;;
173;SDS011;75;48.784;9.364;2023-04-25T04:29:56;8.97;;;5.80;;
173;SDS011;75;48.784;9.364;2023-04-25T04:32:41;7.23;;;5.93;;
173;SDS011;75;48.784;9.364;2023-04-25T04:35:26;7.53;;;5.67;;
173;SDS011;75;48.784;9.364;2023-04-25T04:38:10;8.37;;;6.27;;
173;SDS011;75;48.784;9.364;2023-04-25T04:40:55;9.03;;;6.70;;
173;SDS011;75;48.784;9.364;2023-04-25T04:43:40;8.07;;;6.60;;
173;SDS011;75;48.784;9.364;2023-04-25T04:46:25;7.90;;;5.20;;
173;SDS011;75;48.784;9.364;2023-04-25T04:49:11;8.37;;;6.23;;
173;SDS011;75;48.784;9.364;2023-04-25T04:51:57;7.80;;;6.30;;
173;SDS011;75;48.784;9.364;2023-04-25T04:54:43;9.87;;;5.70;;
173;SDS011;75;48.784;9.364;2023-04-25T04:57:28;9.80;;;5.90;;
173;SDS011;75;48.784;9.364;2023-04-25T05:00:13;8.27;;;7.00;;
173;SDS011;75;48.784;9.364;2023-04-25T05:02:58;7.80;;;6.53;;
173;SDS011;75;48.784;9.364;2023-04-25T05:05:43;11.23;;;7.03;;
173;SDS011;75;48.784;9.364;2023-04-25T05:08:29;8.70;;;6.83;;
173;SDS011;75;48.784;9.364;2023-04-25T05:11:14;7.50;;;5.47;;
173;SDS011;75;48.784;9.364;2023-04-25T05:13:58;8.70;;;6.10;;
173;SDS011;75;48.784;9.364;2023-04-25T05:16:43;10.03;;;5.97;;
173;SDS011;75;48.784;9.364;2023-04-25T05:19:28;6.83;;;5.00;;
173;SDS011;75;48.784;9.364;2023-04-25T05:22:12;10.40;;;5.40;;
173;SDS011;75;48.784;9.364;2023-04-25T05:24:57;7.53;;;5.83;;
173;SDS011;75;48.784;9.364;2023-04-25T05:27:41;7.70;;;5.40;;
173;SDS011;75;48.784;9.364;2023-04-25T05:30:26;8.20;;;5.73;;
173;SDS011;75;48.784;9.364;2023-04-25T05:33:10;8.10;;;5.90;;
173;SDS011;75;48.784;9.364;2023-04-25T05:35:55;11.30;;;6.20;;
173;SDS011;75;48.784;9.364;2023-04-25T05:38:39;8.87;;;6.00;;
173;SDS011;75;48.784;9.364;2023-04-25T05:41:24;8.40;;;5.30;;
173;SDS011;75;48.784;9.364;2023-04-25T05:44:08;8.97;;;5.80;;
173;SDS011;75;48.784;9.364;2023-04-25T05:46:53;9.40;;;5.60;;
173;SDS011;75;48.784;9.364;2023-04-25T05:49:38;9.37;;;5.53;;
173;SDS011;75;48.784;9.364;2023-04-25T05:52:22;10.77;;;6.00;;
173;SDS011;75;48.784;9.364;2023-04-25T05:55:07;8.13;;;5.50;;
173;SDS011;75;48.784;9.364;2023-04-25T05:57:52;6.53;;;4.97;;
173;SDS011;75;48.784;9.364;2023-04-25T06:00:36;9.10;;;5.40;;
173;SDS011;75;48.784;9.364;2023-04-25T06:03:21;7.77;;;5.63;;
173;SDS011;75;48.784;9.364;2023-04-25T06:06:06;7.00;;;5.70;;
173;SDS011;75;48.784;9.364;2023-04-25T06:08:51;8.97;;;5.53;;
173;SDS011;75;48.784;9.364;2023-04-25T06:11:35;7.67;;;6.30;;
173;SDS011;75;48.784;9.364;2023-04-25T06:14:20;9.97;;;5.80;;
173;SDS011;75;48.784;9.364;2023-04-25T06:17:04;7.87;;;5.80;;
173;SDS011;75;48.784;9.364;2023-04-25T06:19:52;8.63;;;6.07;;
173;SDS011;75;48.784;9.364;2023-04-25T06:22:36;6.67;;;5.10;;
173;SDS011;75;48.784;9.364;2023-04-25T06:25:21;8.00;;;4.70;;
173;SDS011;75;48.784;9.364;2023-04-25T06:28:05;6.10;;;4.57;;
173;SDS011;75;48.784;9.364;2023-04-25T06:30:50;7.23;;;4.67;;
173;SDS011;75;48.784;9.364;2023-04-25T06:33:34;10.10;;;4.80;;
173;SDS011;75;48.784;9.364;2023-04-25T06:36:19;11.70;;;4.60;;
173;SDS011;75;48.784;9.364;2023-04-25T06:39:08;9.60;;;4.60;;
173;SDS011;75;48.784;9.364;2023-04-25T06:41:53;15.80;;;4.87;;
173;SDS011;75;48.784;9.364;2023-04-25T06:44:38;6.50;;;4.17;;
173;SDS011;75;48.784;9.364;2023-04-25T06:47:22;9.17;;;4.70;;
173;SDS011;75;48.784;9.364;2023-04-25T06:50:07;8.57;;;5.00;;
173;SDS011;75;48.784;9.364;2023-04-25T06:52:51;7.90;;;5.10;;
173;SDS011;75;48.784;9.364;2023-04-25T06:55:36;10.70;;;5.30;;
173;SDS011;75;48.784;9.364;2023-04-25T06:58:20;9.20;;;5.03;;
173;SDS011;75;48.784;9.364;2023-04-25T07:01:06;7.50;;;4.70;;
173;SDS011;75;48.784;9.364;2023-04-25T07:03:50;5.57;;;4.67;;
173;SDS011;75;48.784;9.364;2023-04-25T07:06:35;12.20;;;4.60;;
173;SDS011;75;48.784;9.364;2023-04-25T07:09:25;6.40;;;3.90;;
173;SDS011;75;48.784;9.364;2023-04-25T07:12:10;5.83;;;3.97;;
173;SDS011;75;48.784;9.364;2023-04-25T07:14:54;7.00;;;4.70;;
173;SDS011;75;48.784;9.364;2023-04-25T07:17:39;9.03;;;5.03;;
173;SDS011;75;48.784;9.364;2023-04-25T07:20:23;6.30;;;4.97;;
173;SDS011;75;48.784;9.364;2023-04-25T07:23:08;8.57;;;5.00;;
173;SDS011;75;48.784;9.364;2023-04-25T07:25:53;12.93;;;5.40;;
173;SDS011;75;48.784;9.364;2023-04-25T07:28:37;11.70;;;5.33;;
173;SDS011;75;48.784;9.364;2023-04-25T07:31:22;8.23;;;5.73;;
173;SDS011;75;48.784;9.364;2023-04-25T07:34:07;6.60;;;4.90;;
173;SDS011;75;48.784;9.364;2023-04-25T07:36:51;9.23;;;5.40;;
173;SDS011;75;48.784;9.364;2023-04-25T07:39:37;9.70;;;5.77;;
173;SDS011;75;48.784;9.364;2023-04-25T07:42:21;13.73;;;6.10;;
173;SDS011;75;48.784;9.364;2023-04-25T07:45:06;10.03;;;7.03;;
173;SDS011;75;48.784;9.364;2023-04-25T07:47:51;9.77;;;7.00;;
173;SDS011;75;48.784;9.364;2023-04-25T07:50:36;9.03;;;6.37;;
173;SDS011;75;48.784;9.364;2023-04-25T07:53:20;9.10;;;6.30;;
173;SDS011;75;48.784;9.364;2023-04-25T07:56:05;10.00;;;6.33;;
173;SDS011;75;48.784;9.364;2023-04-25T07:58:49;10.23;;;6.27;;
173;SDS011;75;48.784;9.364;2023-04-25T08:01:34;11.27;;;6.27;;
173;SDS011;75;48.784;9.364;2023-04-25T08:04:19;11.80;;;6.30;;
173;SDS011;75;48.784;9.364;2023-04-25T08:07:04;9.17;;;6.53;;
173;SDS011;75;48.784;9.364;2023-04-25T08:09:49;10.43;;;6.20;;
173;SDS011;75;48.784;9.364;2023-04-25T08:12:33;7.93;;;6.10;;
173;SDS011;75;48.784;9.364;2023-04-25T08:15:18;12.33;;;6.90;;
173;SDS011;75;48.784;9.364;2023-04-25T08:18:02;16.03;;;8.07;;
173;SDS011;75;48.784;9.364;2023-04-25T08:20:47;10.37;;;8.10;;
173;SDS011;75;48.784;9.364;2023-04-25T08:23:31;13.43;;;9.10;;
173;SDS011;75;48.784;9.364;2023-04-25T08:26:16;13.20;;;9.10;;
173;SDS011;75;48.784;9.364;2023-04-25T08:29:00;18.70;;;10.30;;
173;SDS011;75;48.784;9.364;2023-04-25T08:31:45;22.67;;;11.30;;
173;SDS011;75;48.784;9.364;2023-04-25T08:34:30;53.93;;;30.23;;
173;SDS011;75;48.784;9.364;2023-04-25T08:37:14;17.93;;;11.47;;
173;SDS011;75;48.784;9.364;2023-04-25T08:39:59;24.13;;;13.70;;
173;SDS011;75;48.784;9.364;2023-04-25T08:42:43;25.50;;;14.27;;
173;SDS011;75;48.784;9.364;2023-04-25T08:45:28;27.00;;;14.73;;
173;SDS011;75;48.784;9.364;2023-04-25T08:48:16;21.27;;;14.00;;
173;SDS011;75;48.784;9.364;2023-04-25T08:51:02;26.17;;;17.27;;
173;SDS011;75;48.784;9.364;2023-04-25T08:53:47;28.60;;;17.00;;
173;SDS011;75;48.784;9.364;2023-04-25T08:56:33;21.33;;;14.70;;
173;SDS011;75;48.784;9.364;2023-04-25T08:59:18;24.33;;;15.20;;
173;SDS011;75;48.784;9.364;2023-04-25T09:02:03;20.93;;;13.33;;
173;SDS011;75;48.784;9.364;2023-04-25T09:04:48;19.73;;;13.33;;
173;SDS011;75;48.784;9.364;2023-04-25T09:07:33;19.83;;;12.67;;
173;SDS011;75;48.784;9.364;2023-04-25T09:10:18;16.73;;;11.73;;
173;SDS011;75;48.784;9.364;2023-04-25T09:15:49;21.77;;;14.27;;
173;SDS011;75;48.784;9.364;2023-04-25T09:18:35;20.93;;;14.73;;
173;SDS011;75;48.784;9.364;2023-04-25T09:21:21;25.97;;;16.33;;
173;SDS011;75;48.784;9.364;2023-04-25T09:24:06;27.33;;;17.90;;
173;SDS011;75;48.784;9.364;2023-04-25T09:26:51;37.30;;;17.80;;
173;SDS011;75;48.784;9.364;2023-04-25T09:29:37;46.13;;;18.77;;
173;SDS011;75;48.784;9.364;2023-04-25T09:32:22;31.43;;;12.10;;
173;SDS011;75;48.784;9.364;2023-04-25T09:35:07;18.57;;;10.77;;
173;SDS011;75;48.784;9.364;2023-04-25T09:37:52;15.37;;;10.37;;
173;SDS011;75;48.784;9.364;2023-04-25T09:40:43;16.10;;;11.17;;
173;SDS011;75;48.784;9.364;2023-04-25T09:43:28;14.20;;;10.00;;
173;SDS011;75;48.784;9.364;2023-04-25T09:46:13;15.70;;;11.57;;
173;SDS011;75;48.784;9.364;2023-04-25T09:48:58;19.80;;;12.70;;
173;SDS011;75;48.784;9.364;2023-04-25T09:51:43;21.63;;;13.80;;
173;SDS011;75;48.784;9.364;2023-04-25T09:54:38;18.20;;;12.33;;
173;SDS011;75;48.784;9.364;2023-04-25T09:57:23;14.10;;;10.33;;
173;SDS011;75;48.784;9.364;2023-04-25T10:00:08;14.93;;;10.87;;
173;SDS011;75;48.784;9.364;2023-04-25T10:02:55;15.13;;;10.63;;
173;SDS011;75;48.784;9.364;2023-04-25T10:05:41;13.10;;;9.33;;
173;SDS011;75;48.784;9.364;2023-04-25T10:08:31;12.10;;;9.20;;
173;SDS011;75;48.784;9.364;2023-04-25T10:11:16;10.60;;;7.83;;
173;SDS011;75;48.784;9.364;2023-04-25T10:14:01;12.50;;;7.97;;
173;SDS011;75;48.784;9.364;2023-04-25T10:16:46;9.83;;;7.50;;
173;SDS011;75;48.784;9.364;2023-04-25T10:19:32;10.60;;;7.93;;
173;SDS011;75;48.784;9.364;2023-04-25T10:22:29;10.60;;;7.40;;
173;SDS011;75;48.784;9.364;2023-04-25T10:25:15;8.00;;;6.30;;
173;SDS011;75;48.784;9.364;2023-04-25T10:28:00;6.97;;;5.20;;
173;SDS011;75;48.784;9.364;2023-04-25T10:31:02;7.30;;;5.47;;
173;SDS011;75;48.784;9.364;2023-04-25T10:33:47;4.57;;;3.80;;
173;SDS011;75;48.784;9.364;2023-04-25T10:36:32;5.03;;;4.10;;
173;SDS011;75;48.784;9.364;2023-04-25T10:39:21;5.43;;;4.30;;
173;SDS011;75;48.784;9.364;2023-04-25T10:42:07;8.97;;;5.40;;
173;SDS011;75;48.784;9.364;2023-04-25T10:45:01;7.60;;;6.60;;
173;SDS011;75;48.784;9.364;2023-04-25T10:47:46;7.33;;;6.10;;
173;SDS011;75;48.784;9.364;2023-04-25T10:50:37;7.53;;;5.27;;
173;SDS011;75;48.784;9.364;2023-04-25T10:53:24;6.40;;;4.90;;
173;SDS011;75;48.784;9.364;2023-04-25T10:56:09;7.30;;;5.40;;
173;SDS011;75;48.784;9.364;2023-04-25T10:59:13;13.37;;;8.20;;
173;SDS011;75;48.784;9.364;2023-04-25T11:01:58;9.07;;;6.90;;
173;SDS011;75;48.784;9.364;2023-04-25T11:04:43;16.00;;;8.23;;
173;SDS011;75;48.784;9.364;2023-04-25T11:07:50;8.80;;;7.20;;
173;SDS011;75;48.784;9.364;2023-04-25T11:10:35;12.73;;;9.50;;
173;SDS011;75;48.784;9.364;2023-04-25T11:13:20;16.00;;;10.60;;
173;SDS011;75;48.784;9.364;2023-04-25T11:16:07;17.23;;;10.67;;
173;SDS011;75;48.784;9.364;2023-04-25T11:18:51;25.30;;;9.47;;
173;SDS011;75;48.784;9.364;2023-04-25T11:21:36;17.13;;;10.33;;
173;SDS011;75;48.784;9.364;2023-04-25T11:24:25;11.37;;;7.17;;
173;SDS011;75;48.784;9.364;2023-04-25T11:27:09;10.30;;;7.20;;
173;SDS011;75;48.784;9.364;2023-04-25T11:29:54;10.10;;;7.83;;
173;SDS011;75;48.784;9.364;2023-04-25T11:32:39;11.43;;;8.50;;
173;SDS011;75;48.784;9.364;2023-04-25T11:35:24;11.87;;;8.03;;
173;SDS011;75;48.784;9.364;2023-04-25T11:38:09;12.80;;;8.53;;
173;SDS011;75;48.784;9.364;2023-04-25T11:40:53;10.07;;;7.17;;
173;SDS011;75;48.784;9.364;2023-04-25T11:43:38;8.10;;;6.33;;
173;SDS011;75;48.784;9.364;2023-04-25T11:46:23;8.70;;;6.17;;
173;SDS011;75;48.784;9.364;2023-04-25T11:49:07;10.77;;;7.40;;
173;SDS011;75;48.784;9.364;2023-04-25T11:51:52;10.67;;;6.70;;
173;SDS011;75;48.784;9.364;2023-04-25T11:54:37;9.63;;;7.20;;
173;SDS011;75;48.784;9.364;2023-04-25T11:57:21;8.00;;;5.83;;
173;SDS011;75;48.784;9.364;2023-04-25T12:00:10;7.67;;;5.80;;
173;SDS011;75;48.784;9.364;2023-04-25T12:02:55;8.10;;;6.47;;
173;SDS011;75;48.784;9.364;2023-04-25T12:05:41;7.47;;;5.93;;
173;SDS011;75;48.784;9.364;2023-04-25T12:08:26;7.37;;;5.43;;
173;SDS011;75;48.784;9.364;2023-04-25T12:11:20;6.90;;;5.00;;
173;SDS011;75;48.784;9.364;2023-04-25T12:14:05;7.20;;;5.67;;
173;SDS011;75;48.784;9.364;2023-04-25T12:16:50;7.80;;;5.70;;
173;SDS011;75;48.784;9.364;2023-04-25T12:19:35;6.53;;;4.40;;
173;SDS011;75;48.784;9.364;2023-04-25T12:22:21;5.40;;;4.30;;
173;SDS011;75;48.784;9.364;2023-04-25T12:25:06;7.70;;;5.80;;
173;SDS011;75;48.784;9.364;2023-04-25T12:27:51;6.20;;;4.83;;
173;SDS011;75;48.784;9.364;2023-04-25T12:33:39;6.70;;;5.53;;
173;SDS011;75;48.784;9.364;2023-04-25T12:36:26;7.83;;;4.70;;
173;SDS011;75;48.784;9.364;2023-04-25T12:39:14;7.03;;;5.67;;
173;SDS011;75;48.784;9.364;2023-04-25T12:41:58;9.60;;;6.20;;
173;SDS011;75;48.784;9.364;2023-04-25T12:44:43;6.73;;;5.47;;
173;SDS011;75;48.784;9.364;2023-04-25T12:47:28;8.40;;;5.73;;
173;SDS011;75;48.784;9.364;2023-04-25T12:50:13;8.43;;;5.63;;
173;SDS011;75;48.784;9.364;2023-04-25T12:52:57;10.00;;;6.63;;
173;SDS011;75;48.784;9.364;2023-04-25T12:55:42;7.93;;;6.27;;
173;SDS011;75;48.784;9.364;2023-04-25T12:58:29;8.97;;;6.63;;
173;SDS011;75;48.784;9.364;2023-04-25T13:01:14;8.37;;;6.30;;
173;SDS011;75;48.784;9.364;2023-04-25T13:03:58;12.07;;;7.20;;
173;SDS011;75;48.784;9.364;2023-04-25T13:06:43;13.17;;;8.93;;
173;SDS011;75;48.784;9.364;2023-04-25T13:09:28;10.57;;;7.50;;
173;SDS011;75;48.784;9.364;2023-04-25T13:12:12;9.00;;;7.00;;
173;SDS011;75;48.784;9.364;2023-04-25T13:14:57;10.17;;;7.50;;
173;SDS011;75;48.784;9.364;2023-04-25T13:17:41;10.30;;;7.50;;
173;SDS011;75;48.784;9.364;2023-04-25T13:20:26;10.20;;;7.60;;
173;SDS011;75;48.784;9.364;2023-04-25T13:23:11;9.40;;;6.87;;
173;SDS011;75;48.784;9.364;2023-04-25T13:25:55;9.73;;;6.60;;
173;SDS011;75;48.784;9.364;2023-04-25T13:28:44;10.70;;;6.60;;
173;SDS011;75;48.784;9.364;2023-04-25T13:31:29;10.70;;;7.40;;
173;SDS011;75;48.784;9.364;2023-04-25T13:34:13;10.37;;;7.43;;
173;SDS011;75;48.784;9.364;2023-04-25T13:36:58;11.10;;;8.40;;
173;SDS011;75;48.784;9.364;2023-04-25T13:39:42;10.70;;;8.13;;
173;SDS011;75;48.784;9.364;2023-04-25T13:42:27;12.63;;;9.20;;
173;SDS011;75;48.784;9.364;2023-04-25T13:45:11;10.40;;;8.17;;
173;SDS011;75;48.784;9.364;2023-04-25T13:47:56;12.00;;;8.13;;
173;SDS011;75;48.784;9.364;2023-04-25T13:50:40;12.17;;;8.70;;
173;SDS011;75;48.784;9.364;2023-04-25T13:53:25;12.07;;;8.37;;
173;SDS011;75;48.784;9.364;2023-04-25T13:56:09;14.33;;;8.40;;
173;SDS011;75;48.784;9.364;2023-04-25T13:58:55;10.70;;;8.20;;
173;SDS011;75;48.784;9.364;2023-04-25T14:01:40;12.20;;;8.37;;
173;SDS011;75;48.784;9.364;2023-04-25T14:04:25;12.80;;;7.77;;
173;SDS011;75;48.784;9.364;2023-04-25T14:07:09;14.23;;;8.53;;
173;SDS011;75;48.784;9.364;2023-04-25T14:09:54;12.40;;;8.60;;
173;SDS011;75;48.784;9.364;2023-04-25T14:12:40;14.63;;;9.07;;
173;SDS011;75;48.784;9.364;2023-04-25T14:15:25;11.43;;;8.50;;
173;SDS011;75;48.784;9.364;2023-04-25T14:18:09;13.97;;;9.40;;
173;SDS011;75;48.784;9.364;2023-04-25T14:20:54;14.20;;;9.17;;
173;SDS011;75;48.784;9.364;2023-04-25T14:23:38;16.30;;;8.87;;
173;SDS011;75;48.784;9.364;2023-04-25T14:26:23;13.33;;;8.93;;
173;SDS011;75;48.784;9.364;2023-04-25T14:29:08;15.10;;;10.23;;
173;SDS011;75;48.784;9.364;2023-04-25T14:31:55;18.10;;;10.40;;
173;SDS011;75;48.784;9.364;2023-04-25T14:34:41;15.10;;;10.50;;
173;SDS011;75;48.784;9.364;2023-04-25T14:37:25;15.43;;;10.53;;
173;SDS011;75;48.784;9.364;2023-04-25T14:40:10;13.90;;;10.97;;
173;SDS011;75;48.784;9.364;2023-04-25T14:42:56;14.00;;;9.80;;
173;SDS011;75;48.784;9.364;2023-04-25T14:45:41;16.80;;;10.20;;
173;SDS011;75;48.784;9.364;2023-04-25T14:48:25;13.37;;;9.30;;
173;SDS011;75;48.784;9.364;2023-04-25T14:51:10;15.73;;;10.20;;
173;SDS011;75;48.784;9.364;2023-04-25T14:53:55;14.63;;;10.53;;
173;SDS011;75;48.784;9.364;2023-04-25T14:56:39;13.87;;;9.87;;
173;SDS011;75;48.784;9.364;2023-04-25T14:59:24;14.73;;;10.43;;
173;SDS011;75;48.784;9.364;2023-04-25T15:02:09;15.73;;;11.10;;
173;SDS011;75;48.784;9.364;2023-04-25T15:04:54;13.03;;;9.70;;
173;SDS011;75;48.784;9.364;2023-04-25T15:07:39;13.57;;;9.07;;
173;SDS011;75;48.784;9.364;2023-04-25T15:10:24;20.57;;;9.77;;
173;SDS011;75;48.784;9.364;2023-04-25T15:13:09;14.30;;;10.63;;
173;SDS011;75;48.784;9.364;2023-04-25T15:15:54;14.13;;;9.97;;
173;SDS011;75;48.784;9.364;2023-04-25T15:18:39;13.97;;;9.70;;
173;SDS011;75;48.784;9.364;2023-04-25T15:21:23;13.53;;;9.97;;
173;SDS011;75;48.784;9.364;2023-04-25T15:24:10;13.07;;;9.13;;
173;SDS011;75;48.784;9.364;2023-04-25T15:26:54;13.93;;;9.37;;
173;SDS011;75;48.784;9.364;2023-04-25T15:29:39;20.90;;;10.60;;
173;SDS011;75;48.784;9.364;2023-04-25T15:32:23;25.00;;;14.67;;
173;SDS011;75;48.784;9.364;2023-04-25T15:35:08;14.17;;;9.27;;
173;SDS011;75;48.784;9.364;2023-04-25T15:37:54;12.23;;;8.60;;
173;SDS011;75;48.784;9.364;2023-04-25T15:40:38;13.30;;;8.47;;
173;SDS011;75;48.784;9.364;2023-04-25T15:43:22;13.13;;;8.50;;
173;SDS011;75;48.784;9.364;2023-04-25T15:46:07;14.23;;;8.67;;
173;SDS011;75;48.784;9.364;2023-04-25T15:48:52;12.90;;;8.13;;
173;SDS011;75;48.784;9.364;2023-04-25T15:51:36;12.53;;;9.13;;
173;SDS011;75;48.784;9.364;2023-04-25T15:54:21;12.50;;;8.20;;
173;SDS011;75;48.784;9.364;2023-04-25T15:57:05;10.60;;;6.97;;
173;SDS011;75;48.784;9.364;2023-04-25T15:59:52;13.50;;;7.60;;
173;SDS011;75;48.784;9.364;2023-04-25T16:02:37;13.60;;;7.30;;
173;SDS011;75;48.784;9.364;2023-04-25T16:05:22;12.10;;;7.47;;
173;SDS011;75;48.784;9.364;2023-04-25T16:08:07;10.50;;;7.00;;
173;SDS011;75;48.784;9.364;2023-04-25T16:10:52;11.70;;;7.90;;
173;SDS011;75;48.784;9.364;2023-04-25T16:13:37;13.70;;;8.40;;
173;SDS011;75;48.784;9.364;2023-04-25T16:16:21;13.80;;;8.53;;
173;SDS011;75;48.784;9.364;2023-04-25T16:19:06;11.97;;;8.10;;
173;SDS011;75;48.784;9.364;2023-04-25T16:21:50;15.80;;;8.10;;
173;SDS011;75;48.784;9.364;2023-04-25T16:24:35;12.60;;;8.40;;
173;SDS011;75;48.784;9.364;2023-04-25T16:27:19;12.87;;;8.37;;
173;SDS011;75;48.784;9.364;2023-04-25T16:30:05;15.80;;;9.40;;
173;SDS011;75;48.784;9.364;2023-04-25T16:32:50;14.03;;;9.50;;
173;SDS011;75;48.784;9.364;2023-04-25T16:35:35;13.00;;;9.03;;
173;SDS011;75;48.784;9.364;2023-04-25T16:38:19;13.13;;;8.77;;
173;SDS011;75;48.784;9.364;2023-04-25T16:41:04;15.40;;;9.30;;
173;SDS011;75;48.784;9.364;2023-04-25T16:43:49;16.43;;;9.10;;
173;SDS011;75;48.784;9.364;2023-04-25T16:46:34;17.73;;;10.20;;
173;SDS011;75;48.784;9.364;2023-04-25T16:49:19;17.23;;;9.83;;
173;SDS011;75;48.784;9.364;2023-04-25T16:52:04;16.30;;;9.20;;
173;SDS011;75;48.784;9.364;2023-04-25T16:54:48;13.77;;;9.67;;
173;SDS011;75;48.784;9.364;2023-04-25T16:57:33;15.10;;;10.10;;
173;SDS011;75;48.784;9.364;2023-04-25T17:00:19;17.13;;;10.03;;
173;SDS011;75;48.784;9.364;2023-04-25T17:03:03;15.63;;;10.30;;
173;SDS011;75;48.784;9.364;2023-04-25T17:05:52;12.87;;;9.47;;
173;SDS011;75;48.784;9.364;2023-04-25T17:08:39;19.10;;;9.53;;
173;SDS011;75;48.784;9.364;2023-04-25T17:11:24;18.83;;;10.90;;
173;SDS011;75;48.784;9.364;2023-04-25T17:14:09;20.13;;;10.17;;
173;SDS011;75;48.784;9.364;2023-04-25T17:16:53;16.30;;;11.20;;
173;SDS011;75;48.784;9.364;2023-04-25T17:19:38;20.37;;;10.83;;
173;SDS011;75;48.784;9.364;2023-04-25T17:22:22;13.00;;;9.47;;
173;SDS011;75;48.784;9.364;2023-04-25T17:25:07;16.00;;;10.00;;
173;SDS011;75;48.784;9.364;2023-04-25T17:27:53;16.53;;;10.60;;
173;SDS011;75;48.784;9.364;2023-04-25T17:30:37;17.97;;;10.00;;
173;SDS011;75;48.784;9.364;2023-04-25T17:33:22;15.93;;;10.43;;
173;SDS011;75;48.784;9.364;2023-04-25T17:36:09;17.77;;;11.00;;
173;SDS011;75;48.784;9.364;2023-04-25T17:38:53;17.50;;;10.43;;
173;SDS011;75;48.784;9.364;2023-04-25T17:41:38;18.07;;;10.27;;
173;SDS011;75;48.784;9.364;2023-04-25T17:44:22;17.80;;;11.10;;
173;SDS011;75;48.784;9.364;2023-04-25T17:47:07;16.80;;;10.70;;
173;SDS011;75;48.784;9.364;2023-04-25T17:49:55;16.90;;;9.73;;